createdAt,value
2018-07-21T00:01:15.481Z,24.60
2018-07-21T00:03:44.319Z,24.70
2018-07-21T00:06:13.148Z,24.70
2018-07-21T00:08:41.988Z,24.60
2018-07-21T00:11:10.817Z,24.70
2018-07-21T00:13:39.665Z,24.70
2018-07-21T00:16:08.508Z,24.70
2018-07-21T00:18:37.348Z,24.50
2018-07-21T00:21:06.192Z,24.30
2018-07-21T00:23:35.032Z,24.30
2018-07-21T00:26:03.869Z,24.30
2018-07-21T00:28:32.702Z,24.20
2018-07-21T00:31:01.536Z,24.30
2018-07-21T00:33:31.112Z,24.30
2018-07-21T00:35:59.958Z,24.20
2018-07-21T00:38:28.794Z,24.20
2018-07-21T00:40:57.618Z,24.00
2018-07-21T00:43:26.465Z,24.10
2018-07-21T00:45:55.303Z,23.90
2018-07-21T00:48:24.143Z,23.80
2018-07-21T00:50:52.984Z,23.80
2018-07-21T00:53:21.818Z,23.80
2018-07-21T00:55:50.644Z,23.70
2018-07-21T00:58:20.218Z,23.70
2018-07-21T01:00:49.052Z,23.70
2018-07-21T01:03:17.882Z,23.60
2018-07-21T01:05:46.724Z,23.70
2018-07-21T01:08:16.303Z,23.50
2018-07-21T01:10:45.136Z,23.50
2018-07-21T01:13:13.966Z,23.50
2018-07-21T01:15:42.824Z,23.50
2018-07-21T01:18:11.663Z,23.40
2018-07-21T01:20:40.496Z,23.40
2018-07-21T01:23:09.337Z,23.50
2018-07-21T01:25:38.173Z,23.40
2018-07-21T01:28:07.017Z,23.30
2018-07-21T01:30:35.848Z,23.40
2018-07-21T01:33:04.676Z,23.30
2018-07-21T01:35:34.254Z,23.20
2018-07-21T01:38:03.099Z,23.20
2018-07-21T01:40:31.938Z,23.20
2018-07-21T01:43:00.768Z,23.20
2018-07-21T01:45:29.610Z,23.20
2018-07-21T01:47:58.457Z,23.10
2018-07-21T01:50:27.288Z,23.30
2018-07-21T01:55:25.556Z,23.10
2018-07-21T01:57:54.393Z,23.10
2018-07-21T02:00:23.235Z,23.00
2018-07-21T02:02:52.324Z,23.10
2018-07-21T02:05:21.654Z,23.00
2018-07-21T02:07:50.508Z,23.00
2018-07-21T02:10:19.336Z,23.10
2018-07-21T02:12:48.171Z,23.00
2018-07-21T02:15:17.003Z,23.10
2018-07-21T02:17:45.837Z,23.10
2018-07-21T02:20:14.682Z,23.10
2018-07-21T02:22:43.520Z,23.00
2018-07-21T02:25:12.358Z,23.10
2018-07-21T02:27:41.205Z,23.00
2018-07-21T02:30:10.034Z,23.10
2018-07-21T02:32:38.869Z,23.10
2018-07-21T02:35:07.696Z,23.10
2018-07-21T02:37:36.526Z,23.10
2018-07-21T02:40:05.362Z,23.00
2018-07-21T02:42:34.201Z,23.00
2018-07-21T02:45:03.038Z,23.20
2018-07-21T02:47:31.988Z,23.20
2018-07-21T02:50:00.702Z,23.10
2018-07-21T02:52:29.540Z,23.20
2018-07-21T02:54:58.373Z,23.20
2018-07-21T02:57:27.201Z,23.20
2018-07-21T02:59:56.040Z,23.00
2018-07-21T03:02:24.868Z,23.00
2018-07-21T03:04:53.707Z,23.00
2018-07-21T03:07:22.549Z,23.00
2018-07-21T03:09:51.376Z,23.00
2018-07-21T03:12:20.219Z,23.10
2018-07-21T03:14:49.055Z,23.20
2018-07-21T03:17:17.891Z,23.20
2018-07-21T03:19:46.715Z,23.20
2018-07-21T03:22:15.539Z,23.30
2018-07-21T03:24:44.379Z,23.30
2018-07-21T03:27:13.209Z,23.20
2018-07-21T03:29:42.049Z,23.30
2018-07-21T03:32:10.891Z,23.40
2018-07-21T03:34:39.725Z,23.30
2018-07-21T03:37:08.552Z,23.30
2018-07-21T03:39:37.378Z,23.20
2018-07-21T03:42:06.946Z,23.30
2018-07-21T03:44:35.774Z,23.30
2018-07-21T03:47:04.620Z,23.30
2018-07-21T03:49:33.463Z,23.40
2018-07-21T03:52:02.304Z,23.40
2018-07-21T03:54:31.145Z,23.30
2018-07-21T03:56:59.991Z,23.30
2018-07-21T03:59:28.828Z,23.20
2018-07-21T04:01:57.674Z,23.20
2018-07-21T04:04:26.511Z,23.20
2018-07-21T04:06:55.341Z,23.10
2018-07-21T04:09:24.173Z,22.90
2018-07-21T04:11:53.029Z,22.90
2018-07-21T04:14:21.858Z,22.80
2018-07-21T04:16:50.697Z,22.80
2018-07-21T04:19:19.533Z,22.80
2018-07-21T04:21:48.376Z,22.80
2018-07-21T04:24:17.275Z,22.80
2018-07-21T04:26:46.068Z,22.80
2018-07-21T04:29:15.641Z,22.80
2018-07-21T04:31:44.476Z,22.80
2018-07-21T04:34:14.054Z,22.80
2018-07-21T04:36:42.891Z,22.70
2018-07-21T04:39:11.737Z,22.80
2018-07-21T04:41:40.594Z,22.80
2018-07-21T04:44:09.424Z,22.80
2018-07-21T04:46:38.273Z,22.90
2018-07-21T04:49:07.119Z,22.90
2018-07-21T04:51:35.941Z,22.80
2018-07-21T04:54:04.790Z,22.80
2018-07-21T04:56:34.365Z,22.70
2018-07-21T04:59:03.201Z,22.80
2018-07-21T05:01:32.049Z,22.70
2018-07-21T05:04:00.887Z,22.60
2018-07-21T05:06:29.726Z,22.60
2018-07-21T05:08:58.706Z,22.60
2018-07-21T05:11:27.507Z,22.70
2018-07-21T05:13:56.345Z,22.60
2018-07-21T05:16:25.174Z,22.60
2018-07-21T05:18:54.009Z,22.60
2018-07-21T05:21:22.844Z,22.70
2018-07-21T05:23:51.681Z,22.70
2018-07-21T05:26:21.264Z,22.60
2018-07-21T05:28:50.096Z,22.50
2018-07-21T05:31:19.673Z,22.60
2018-07-21T05:33:48.511Z,22.50
2018-07-21T05:36:17.342Z,22.50
2018-07-21T05:38:46.175Z,22.50
2018-07-21T05:41:15.763Z,22.60
2018-07-21T05:43:44.595Z,22.70
2018-07-21T05:46:13.427Z,22.70
2018-07-21T05:48:42.309Z,22.70
2018-07-21T05:51:11.106Z,22.70
2018-07-21T05:53:39.945Z,22.70
2018-07-21T05:56:09.530Z,22.70
2018-07-21T05:58:38.365Z,22.90
2018-07-21T06:01:07.205Z,22.80
2018-07-21T06:03:36.777Z,22.70
2018-07-21T06:06:05.616Z,22.80
2018-07-21T06:08:34.459Z,22.90
2018-07-21T06:11:03.316Z,22.80
2018-07-21T06:13:32.121Z,22.90
2018-07-21T06:16:00.960Z,22.80
2018-07-21T06:18:29.797Z,22.70
2018-07-21T06:20:58.636Z,22.90
2018-07-21T06:23:27.464Z,22.90
2018-07-21T06:25:56.311Z,22.90
2018-07-21T06:28:25.158Z,23.00
2018-07-21T06:30:53.997Z,23.00
2018-07-21T06:33:22.821Z,23.10
2018-07-21T06:35:51.650Z,22.90
2018-07-21T06:38:20.488Z,22.90
2018-07-21T06:40:49.334Z,22.80
2018-07-21T06:43:18.180Z,22.90
2018-07-21T06:45:47.745Z,22.80
2018-07-21T06:48:16.578Z,22.70
2018-07-21T06:50:45.519Z,22.70
2018-07-21T06:53:14.285Z,22.70
2018-07-21T06:55:43.125Z,22.80
2018-07-21T06:58:11.978Z,22.70
2018-07-21T07:00:40.812Z,22.70
2018-07-21T07:03:09.661Z,22.60
2018-07-21T07:05:38.500Z,22.50
2018-07-21T07:08:08.092Z,22.30
2018-07-21T07:10:36.929Z,22.30
2018-07-21T07:13:05.761Z,22.40
2018-07-21T07:15:34.609Z,22.20
2018-07-21T07:18:03.459Z,22.00
2018-07-21T07:20:32.295Z,21.80
2018-07-21T07:23:01.152Z,21.80
2018-07-21T07:25:30.724Z,21.70
2018-07-21T07:27:59.554Z,21.80
2018-07-21T07:30:28.396Z,21.80
2018-07-21T07:32:57.235Z,21.80
2018-07-21T07:35:26.065Z,21.80
2018-07-21T07:37:54.898Z,21.60
2018-07-21T07:40:23.734Z,21.50
2018-07-21T07:42:52.747Z,21.50
2018-07-21T07:45:21.579Z,21.40
2018-07-21T07:47:50.417Z,21.60
2018-07-21T07:50:19.254Z,21.60
2018-07-21T07:52:48.848Z,21.60
2018-07-21T07:55:17.678Z,21.50
2018-07-21T07:57:46.521Z,21.60
2018-07-21T08:00:15.354Z,21.70
2018-07-21T08:02:44.206Z,21.60
2018-07-21T08:05:13.792Z,21.50
2018-07-21T08:07:42.658Z,21.50
2018-07-21T08:10:11.487Z,21.50
2018-07-21T08:12:40.349Z,21.60
2018-07-21T08:15:09.189Z,21.60
2018-07-21T08:17:38.765Z,21.70
2018-07-21T08:20:07.619Z,21.70
2018-07-21T08:22:36.466Z,21.80
2018-07-21T08:25:05.323Z,21.60
2018-07-21T08:27:34.184Z,21.60
2018-07-21T08:30:03.043Z,21.50
2018-07-21T08:32:31.875Z,21.40
2018-07-21T08:35:00.724Z,21.60
2018-07-21T08:37:30.295Z,21.70
2018-07-21T08:39:59.135Z,21.80
2018-07-21T08:42:27.982Z,21.80
2018-07-21T08:44:56.817Z,21.80
2018-07-21T08:47:25.653Z,21.90
2018-07-21T08:49:54.546Z,21.90
2018-07-21T08:52:23.342Z,21.80
2018-07-21T08:54:52.208Z,21.90
2018-07-21T08:57:21.014Z,21.80
2018-07-21T08:59:49.870Z,21.90
2018-07-21T09:02:18.698Z,21.80
2018-07-21T09:04:47.534Z,21.90
2018-07-21T09:07:16.382Z,21.80
2018-07-21T09:09:45.226Z,21.90
2018-07-21T09:12:14.061Z,21.80
2018-07-21T09:14:43.639Z,21.80
2018-07-21T09:17:12.472Z,21.70
2018-07-21T09:19:41.315Z,21.80
2018-07-21T09:22:10.155Z,21.60
2018-07-21T09:24:39.013Z,21.60
2018-07-21T09:27:07.854Z,21.70
2018-07-21T09:29:36.687Z,21.60
2018-07-21T09:32:06.288Z,21.60
2018-07-21T09:34:35.138Z,21.70
2018-07-21T09:37:03.980Z,21.70
2018-07-21T09:39:32.823Z,21.50
2018-07-21T09:42:01.664Z,21.60
2018-07-21T09:44:30.510Z,21.60
2018-07-21T09:46:59.355Z,21.60
2018-07-21T09:49:28.928Z,21.60
2018-07-21T09:51:57.770Z,21.50
2018-07-21T09:54:26.608Z,21.50
2018-07-21T09:56:55.449Z,21.50
2018-07-21T09:59:24.311Z,21.60
2018-07-21T10:01:53.160Z,21.70
2018-07-21T10:04:21.997Z,21.70
2018-07-21T10:06:50.843Z,21.60
2018-07-21T10:09:19.691Z,21.70
2018-07-21T10:11:48.544Z,21.70
2018-07-21T10:14:17.411Z,21.70
2018-07-21T10:16:46.235Z,21.60
2018-07-21T10:19:15.078Z,21.50
2018-07-21T10:21:43.929Z,21.50
2018-07-21T10:24:13.501Z,21.60
2018-07-21T10:26:42.347Z,21.70
2018-07-21T10:29:11.188Z,21.70
2018-07-21T10:31:40.039Z,21.80
2018-07-21T10:34:08.881Z,21.80
2018-07-21T10:36:37.722Z,21.70
2018-07-21T10:39:06.569Z,21.70
2018-07-21T10:41:35.409Z,21.60
2018-07-21T10:44:04.273Z,21.70
2018-07-21T10:46:33.116Z,21.80
2018-07-21T10:49:01.954Z,21.80
2018-07-21T10:51:30.799Z,21.70
2018-07-21T10:53:59.653Z,21.60
2018-07-21T10:56:28.489Z,21.80
2018-07-21T10:58:57.328Z,21.80
2018-07-21T11:01:26.175Z,21.80
2018-07-21T11:03:55.019Z,21.90
2018-07-21T11:06:23.935Z,21.90
2018-07-21T11:08:52.706Z,22.00
2018-07-21T11:11:21.540Z,22.10
2018-07-21T11:13:50.410Z,22.10
2018-07-21T11:16:19.261Z,22.20
2018-07-21T11:18:48.842Z,22.30
2018-07-21T11:21:17.692Z,22.30
2018-07-21T11:23:46.534Z,22.20
2018-07-21T11:26:15.384Z,22.20
2018-07-21T11:28:44.218Z,22.40
2018-07-21T11:31:13.810Z,22.40
2018-07-21T11:33:42.645Z,22.50
2018-07-21T11:36:11.656Z,22.60
2018-07-21T11:38:40.340Z,22.60
2018-07-21T11:41:09.171Z,22.80
2018-07-21T11:43:38.013Z,22.70
2018-07-21T11:46:06.852Z,22.90
2018-07-21T11:48:36.433Z,23.00
2018-07-21T11:51:05.265Z,23.10
2018-07-21T11:53:34.098Z,23.10
2018-07-21T11:56:02.945Z,23.10
2018-07-21T11:58:31.784Z,23.00
2018-07-21T12:01:00.624Z,23.20
2018-07-21T12:03:30.239Z,23.30
2018-07-21T12:05:59.083Z,23.50
2018-07-21T12:08:27.934Z,23.50
2018-07-21T12:10:56.788Z,23.70
2018-07-21T12:13:25.680Z,23.90
2018-07-21T12:15:54.491Z,23.90
2018-07-21T12:18:24.081Z,23.90
2018-07-21T12:20:52.940Z,24.10
2018-07-21T12:23:21.784Z,24.00
2018-07-21T12:25:50.619Z,24.00
2018-07-21T12:28:19.640Z,23.90
2018-07-21T12:30:48.454Z,24.00
2018-07-21T12:33:17.296Z,23.90
2018-07-21T12:35:46.130Z,24.00
2018-07-21T12:38:14.984Z,23.90
2018-07-21T12:40:43.822Z,24.10
2018-07-21T12:43:12.678Z,24.20
2018-07-21T12:45:42.269Z,24.30
2018-07-21T12:48:11.110Z,24.40
2018-07-21T12:50:39.954Z,24.40
2018-07-21T12:53:08.790Z,24.50
2018-07-21T12:55:37.633Z,24.80
2018-07-21T12:58:06.478Z,24.90
2018-07-21T13:00:35.321Z,25.10
2018-07-21T13:03:04.165Z,25.20
2018-07-21T13:05:33.002Z,25.30
2018-07-21T13:08:01.865Z,25.40
2018-07-21T13:10:30.725Z,25.90
2018-07-21T13:12:59.538Z,26.30
2018-07-21T13:15:28.378Z,26.60
2018-07-21T13:17:57.960Z,26.70
2018-07-21T13:20:26.827Z,26.80
2018-07-21T13:22:55.665Z,26.40
2018-07-21T13:25:24.526Z,26.30
2018-07-21T13:27:53.398Z,26.30
2018-07-21T13:30:22.241Z,26.50
2018-07-21T13:32:51.090Z,26.60
2018-07-21T13:35:19.923Z,26.70
2018-07-21T13:37:48.768Z,26.70
2018-07-21T13:40:17.610Z,26.80
2018-07-21T13:42:46.444Z,26.70
2018-07-21T13:45:15.285Z,26.50
2018-07-21T13:47:44.126Z,26.30
2018-07-21T13:50:12.958Z,26.20
2018-07-21T13:52:41.822Z,26.20
2018-07-21T13:55:10.668Z,26.10
2018-07-21T13:57:39.506Z,25.90
2018-07-21T14:00:08.347Z,25.80
2018-07-21T14:02:37.191Z,25.70
2018-07-21T14:05:06.038Z,25.70
2018-07-21T14:07:34.876Z,25.50
2018-07-21T14:10:03.762Z,25.40
2018-07-21T14:12:32.584Z,25.20
2018-07-21T14:15:02.190Z,25.10
2018-07-21T14:17:31.765Z,25.00
2018-07-21T14:20:00.622Z,25.00
2018-07-21T14:22:29.475Z,25.00
2018-07-21T14:24:58.312Z,24.90
2018-07-21T14:27:27.143Z,24.80
2018-07-21T14:29:56.072Z,24.80
2018-07-21T14:32:24.844Z,24.80
2018-07-21T14:34:53.689Z,24.70
2018-07-21T14:37:22.532Z,24.70
2018-07-21T14:39:51.586Z,24.60
2018-07-21T14:42:20.490Z,24.50
2018-07-21T14:44:50.070Z,24.40
2018-07-21T14:47:18.912Z,24.10
2018-07-21T14:49:47.751Z,24.10
2018-07-21T14:52:16.585Z,24.10
2018-07-21T14:54:45.472Z,23.90
2018-07-21T14:57:14.404Z,23.70
2018-07-21T14:59:43.324Z,23.40
2018-07-21T15:02:12.123Z,23.10
2018-07-21T15:04:40.979Z,22.90
2018-07-21T15:07:09.814Z,22.90
2018-07-21T15:09:39.504Z,22.70
2018-07-21T15:12:08.253Z,22.70
2018-07-21T15:14:37.092Z,22.50
2018-07-21T15:17:05.948Z,22.50
2018-07-21T15:19:34.811Z,22.40
2018-07-21T15:22:03.697Z,22.40
2018-07-21T15:24:33.244Z,22.20
2018-07-21T15:27:02.084Z,22.00
2018-07-21T15:29:30.937Z,22.00
2018-07-21T15:31:59.796Z,21.90
2018-07-21T15:34:28.626Z,22.00
2018-07-21T15:36:57.470Z,22.20
2018-07-21T15:39:26.394Z,22.20
2018-07-21T15:41:55.991Z,22.10
2018-07-21T15:44:24.829Z,22.20
2018-07-21T15:46:53.662Z,22.20
2018-07-21T15:49:22.518Z,22.10
2018-07-21T15:51:51.377Z,22.00
2018-07-21T15:54:20.203Z,22.00
2018-07-21T15:56:49.055Z,22.00
2018-07-21T15:59:17.895Z,21.80
2018-07-21T16:01:46.741Z,21.80
2018-07-21T16:04:15.575Z,21.80
2018-07-21T16:06:44.444Z,21.90
2018-07-21T16:09:13.274Z,21.70
2018-07-21T16:11:42.119Z,21.80
2018-07-21T16:14:10.954Z,21.70
2018-07-21T16:16:39.787Z,21.70
2018-07-21T16:19:08.648Z,21.40
2018-07-21T16:21:37.496Z,21.30
2018-07-21T16:24:06.342Z,21.30
2018-07-21T16:26:35.924Z,21.30
2018-07-21T16:29:04.754Z,21.40
2018-07-21T16:31:33.592Z,21.40
2018-07-21T16:34:02.425Z,21.50
2018-07-21T16:36:31.268Z,21.50
2018-07-21T16:39:00.111Z,21.50
2018-07-21T16:41:28.954Z,21.40
2018-07-21T16:43:57.784Z,21.50
2018-07-21T16:46:26.666Z,21.50
2018-07-21T16:48:55.468Z,21.50
2018-07-21T16:51:25.050Z,21.50
2018-07-21T16:53:53.885Z,21.60
2018-07-21T16:56:22.732Z,21.50
2018-07-21T16:58:51.569Z,21.50
2018-07-21T17:01:20.419Z,21.60
2018-07-21T17:03:49.270Z,21.60
2018-07-21T17:06:18.116Z,21.80
2018-07-21T17:08:46.960Z,21.70
2018-07-21T17:11:15.820Z,21.70
2018-07-21T17:13:44.658Z,21.60
2018-07-21T17:16:13.501Z,21.60
2018-07-21T17:18:43.096Z,21.60
2018-07-21T17:21:11.977Z,21.70
2018-07-21T17:23:40.796Z,21.70
2018-07-21T17:26:09.638Z,21.70
2018-07-21T17:28:38.471Z,21.80
2018-07-21T17:31:07.312Z,21.80
2018-07-21T17:33:36.150Z,21.80
2018-07-21T17:36:04.982Z,21.80
2018-07-21T17:38:33.826Z,21.80
2018-07-21T17:41:03.415Z,21.80
2018-07-21T17:43:32.263Z,21.90
2018-07-21T17:46:01.103Z,21.80
2018-07-21T17:48:29.973Z,21.70
2018-07-21T17:50:58.846Z,21.80
2018-07-21T17:53:27.685Z,21.80
2018-07-21T17:55:56.536Z,21.70
2018-07-21T17:58:25.379Z,21.60
2018-07-21T18:00:54.234Z,21.60
2018-07-21T18:03:23.090Z,21.60
2018-07-21T18:05:51.959Z,21.60
2018-07-21T18:08:20.799Z,21.60
2018-07-21T18:10:49.646Z,21.50
2018-07-21T18:13:18.482Z,21.60
2018-07-21T18:15:47.336Z,21.50
2018-07-21T18:18:16.181Z,21.40
2018-07-21T18:20:45.029Z,21.20
2018-07-21T18:23:13.893Z,21.20
2018-07-21T18:25:42.807Z,21.30
2018-07-21T18:28:11.601Z,21.50
2018-07-21T18:30:40.447Z,21.60
2018-07-21T18:33:09.354Z,21.60
2018-07-21T18:35:38.154Z,21.50
2018-07-21T18:38:06.998Z,21.50
2018-07-21T18:40:35.837Z,21.50
2018-07-21T18:43:04.671Z,21.40
2018-07-21T18:45:33.513Z,21.50
2018-07-21T18:48:03.097Z,21.40
2018-07-21T18:50:31.937Z,21.50
2018-07-21T18:53:00.779Z,21.40
2018-07-21T18:55:29.636Z,21.30
2018-07-21T18:57:58.486Z,21.30
2018-07-21T19:00:27.327Z,21.30
2018-07-21T19:02:56.174Z,21.30
2018-07-21T19:05:25.025Z,21.20
2018-07-21T19:07:53.888Z,21.20
2018-07-21T19:10:22.716Z,21.30
2018-07-21T19:12:51.552Z,21.20
2018-07-21T19:15:20.384Z,21.20
2018-07-21T19:17:49.226Z,21.30
2018-07-21T19:20:18.097Z,21.20
2018-07-21T19:22:46.936Z,21.20
2018-07-21T19:25:15.784Z,21.20
2018-07-21T19:27:44.629Z,21.20
2018-07-21T19:30:13.466Z,21.20
2018-07-21T19:32:42.306Z,21.20
2018-07-21T19:35:11.146Z,21.10
2018-07-21T19:37:40.011Z,21.00
2018-07-21T19:40:08.896Z,21.10
2018-07-21T19:42:37.694Z,21.10
2018-07-21T19:45:06.531Z,21.00
2018-07-21T19:47:35.404Z,20.80
2018-07-21T19:50:04.957Z,20.90
2018-07-21T19:52:33.804Z,20.90
2018-07-21T19:55:02.648Z,20.90
2018-07-21T19:57:31.498Z,20.90
2018-07-21T20:00:00.337Z,20.80
2018-07-21T20:02:29.182Z,20.90
2018-07-21T20:04:58.033Z,20.80
2018-07-21T20:07:26.873Z,20.80
2018-07-21T20:09:55.716Z,20.80
2018-07-21T20:12:24.560Z,20.80
2018-07-21T20:14:53.408Z,20.90
2018-07-21T20:17:22.317Z,20.90
2018-07-21T20:19:51.074Z,20.80
2018-07-21T20:22:19.920Z,20.90
2018-07-21T20:24:48.764Z,20.90
2018-07-21T20:27:17.609Z,20.80
2018-07-21T20:29:46.464Z,20.80
2018-07-21T20:32:15.299Z,20.80
2018-07-21T20:34:44.144Z,20.70
2018-07-21T20:37:13.013Z,20.70
2018-07-21T20:39:41.905Z,20.70
2018-07-21T20:42:10.704Z,20.60
2018-07-21T20:44:39.565Z,20.60
2018-07-21T20:47:08.412Z,20.50
2018-07-21T20:49:37.277Z,20.50
2018-07-21T20:52:06.885Z,20.60
2018-07-21T20:54:36.471Z,20.60
2018-07-21T20:57:05.408Z,20.50
2018-07-21T20:59:34.225Z,20.70
2018-07-21T21:02:03.028Z,20.70
2018-07-21T21:04:31.870Z,20.70
2018-07-21T21:07:00.717Z,20.70
2018-07-21T21:09:29.546Z,20.70
2018-07-21T21:11:58.425Z,20.70
2018-07-21T21:14:27.256Z,20.60
2018-07-21T21:16:56.849Z,20.60
2018-07-21T21:19:25.697Z,20.70
2018-07-21T21:21:54.541Z,20.60
2018-07-21T21:24:23.378Z,20.60
2018-07-21T21:26:52.235Z,20.60
2018-07-21T21:29:21.839Z,20.60
2018-07-21T21:31:50.691Z,20.70
2018-07-21T21:34:19.540Z,20.70
2018-07-21T21:36:48.398Z,20.70
2018-07-21T21:39:17.231Z,20.70
2018-07-21T21:41:46.099Z,20.70
2018-07-21T21:44:14.932Z,20.60
2018-07-21T21:46:43.780Z,20.60
2018-07-21T21:49:13.364Z,20.60
2018-07-21T21:51:42.212Z,20.60
2018-07-21T21:54:11.054Z,20.50
2018-07-21T21:56:40.645Z,20.50
2018-07-21T21:59:09.498Z,20.70
2018-07-21T22:01:38.332Z,20.60
2018-07-21T22:04:07.226Z,20.60
2018-07-21T22:06:36.024Z,20.60
2018-07-21T22:09:05.657Z,20.60
2018-07-21T22:11:34.476Z,20.50
2018-07-21T22:14:03.318Z,20.50
2018-07-21T22:16:32.910Z,20.50
2018-07-21T22:19:01.763Z,20.40
2018-07-21T22:21:30.719Z,20.50
2018-07-21T22:23:59.458Z,20.50
2018-07-21T22:26:29.048Z,20.40
2018-07-21T22:28:57.894Z,20.40
2018-07-21T22:31:26.743Z,20.50
2018-07-21T22:33:55.600Z,20.40
2018-07-21T22:36:24.437Z,20.40
2018-07-21T22:38:53.291Z,20.40
2018-07-21T22:41:22.131Z,20.40
2018-07-21T22:43:51.719Z,20.40
2018-07-21T22:46:20.561Z,20.40
2018-07-21T22:48:49.415Z,20.40
2018-07-21T22:51:18.262Z,20.30
2018-07-21T22:53:47.111Z,20.30
2018-07-21T22:56:15.966Z,20.30
2018-07-21T22:58:44.826Z,20.30
2018-07-21T23:01:13.707Z,20.40
2018-07-21T23:03:42.512Z,20.40
2018-07-21T23:06:11.358Z,20.40
2018-07-21T23:08:40.206Z,20.40
2018-07-21T23:11:09.057Z,20.40
2018-07-21T23:13:37.897Z,20.40
2018-07-21T23:16:07.487Z,20.40
2018-07-21T23:18:36.330Z,20.50
2018-07-21T23:21:05.177Z,20.40
2018-07-21T23:23:34.038Z,20.40
2018-07-21T23:26:02.877Z,20.40
2018-07-21T23:28:31.725Z,20.40
2018-07-21T23:31:00.587Z,20.30
2018-07-21T23:33:29.422Z,20.40
2018-07-21T23:35:58.273Z,20.40
2018-07-21T23:38:27.115Z,20.40
2018-07-21T23:40:55.956Z,20.40
2018-07-21T23:43:24.797Z,20.30
2018-07-21T23:45:53.660Z,20.30
2018-07-21T23:48:22.493Z,20.30
2018-07-21T23:50:51.343Z,20.20
2018-07-21T23:53:20.195Z,20.20
2018-07-21T23:55:49.042Z,20.30
2018-07-21T23:58:17.879Z,20.20
